createdAt,value
2019-06-10T00:01:31.933Z,68.00
2019-06-10T00:04:03.504Z,68.60
2019-06-10T00:06:31.152Z,68.60
2019-06-10T00:09:03.081Z,69.90
2019-06-10T00:11:31.533Z,68.60
2019-06-10T00:14:02.420Z,69.10
2019-06-10T00:16:30.862Z,69.40
2019-06-10T00:19:02.802Z,69.50
2019-06-10T00:21:30.783Z,70.00
2019-06-10T00:24:02.146Z,69.80
2019-06-10T00:26:30.731Z,69.70
2019-06-10T00:29:00.649Z,69.50
2019-06-10T00:31:31.289Z,70.10
2019-06-10T00:34:02.953Z,70.40
2019-06-10T00:36:30.856Z,70.20
2019-06-10T00:39:02.470Z,70.70
2019-06-10T00:41:33.084Z,70.40
2019-06-10T00:44:03.698Z,72.20
2019-06-10T00:46:31.817Z,70.70
2019-06-10T00:49:03.947Z,70.50
2019-06-10T00:51:31.409Z,70.60
2019-06-10T00:54:03.361Z,70.70
2019-06-10T00:56:30.871Z,70.50
2019-06-10T00:59:01.015Z,70.90
2019-06-10T01:01:31.265Z,71.20
2019-06-10T01:04:01.876Z,71.20
2019-06-10T01:06:31.785Z,71.00
2019-06-10T01:09:00.976Z,71.60
2019-06-10T01:11:31.107Z,71.50
2019-06-10T01:14:01.491Z,72.00
2019-06-10T01:16:31.820Z,72.20
2019-06-10T01:19:01.529Z,72.20
2019-06-10T01:21:31.292Z,72.30
2019-06-10T01:24:01.167Z,72.10
2019-06-10T01:26:31.020Z,72.50
2019-06-10T01:29:00.982Z,72.40
2019-06-10T01:31:31.698Z,72.70
2019-06-10T01:34:00.722Z,73.10
2019-06-10T01:36:31.212Z,72.90
2019-06-10T01:39:01.503Z,73.60
2019-06-10T01:41:30.601Z,73.20
2019-06-10T01:44:01.560Z,73.40
2019-06-10T01:46:31.647Z,73.40
2019-06-10T01:49:00.778Z,73.40
2019-06-10T01:51:31.621Z,73.80
2019-06-10T01:54:01.308Z,73.90
2019-06-10T01:56:31.477Z,74.10
2019-06-10T01:59:01.489Z,74.10
2019-06-10T02:01:43.818Z,74.20
2019-06-10T02:04:14.916Z,75.20
2019-06-10T02:06:42.713Z,74.50
2019-06-10T02:09:13.396Z,74.40
2019-06-10T02:11:41.686Z,75.00
2019-06-10T02:14:14.711Z,74.50
2019-06-10T02:16:41.451Z,74.60
2019-06-10T02:19:12.947Z,74.80
2019-06-10T02:21:41.713Z,74.70
2019-06-10T02:24:12.769Z,75.00
2019-06-10T02:26:41.165Z,75.10
2019-06-10T02:29:12.480Z,75.40
2019-06-10T02:31:43.248Z,75.70
2019-06-10T02:34:13.262Z,75.90
2019-06-10T02:36:44.235Z,76.40
2019-06-10T02:39:13.342Z,76.90
2019-06-10T02:41:44.435Z,76.70
2019-06-10T02:44:16.349Z,77.10
2019-06-10T02:46:43.994Z,76.80
2019-06-10T02:49:26.591Z,78.00
2019-06-10T02:51:43.669Z,77.70
2019-06-10T02:54:14.020Z,78.30
2019-06-10T02:56:44.278Z,78.50
2019-06-10T02:59:13.337Z,78.70
2019-06-10T03:01:43.889Z,79.00
2019-06-10T03:04:13.866Z,79.00
2019-06-10T03:06:44.787Z,79.90
2019-06-10T03:09:14.115Z,80.40
2019-06-10T03:11:44.852Z,80.50
2019-06-10T03:14:13.274Z,80.70
2019-06-10T03:16:49.570Z,81.30
2019-06-10T03:19:34.367Z,81.80
2019-06-10T03:21:48.292Z,82.20
2019-06-10T03:24:17.062Z,82.80
2019-06-10T03:26:45.565Z,82.50
2019-06-10T03:29:14.037Z,82.90
2019-06-10T03:31:47.804Z,82.70
2019-06-10T03:34:14.691Z,83.90
2019-06-10T03:36:44.093Z,84.90
2019-06-10T03:39:13.277Z,85.10
2019-06-10T03:41:42.375Z,85.90
2019-06-10T03:44:13.189Z,86.40
2019-06-10T03:46:43.111Z,86.70
2019-06-10T03:49:12.628Z,87.60
2019-06-10T03:51:42.813Z,87.70
2019-06-10T03:54:13.173Z,88.40
2019-06-10T03:56:43.001Z,89.40
2019-06-10T03:59:12.405Z,89.80
2019-06-10T04:01:42.586Z,90.20
2019-06-10T04:04:13.034Z,90.70
2019-06-10T04:06:44.199Z,91.00
2019-06-10T04:09:12.129Z,91.50
2019-06-10T04:11:43.131Z,91.70
2019-06-10T04:14:13.057Z,92.10
2019-06-10T04:16:43.364Z,92.60
2019-06-10T04:19:13.152Z,93.00
2019-06-10T04:21:43.328Z,93.20
2019-06-10T04:24:12.867Z,93.70
2019-06-10T04:26:43.467Z,93.70
2019-06-10T04:29:12.906Z,93.70
2019-06-10T04:31:42.529Z,94.20
2019-06-10T04:34:12.411Z,94.30
2019-06-10T04:36:42.383Z,94.70
2019-06-10T04:39:12.489Z,94.90
2019-06-10T04:41:42.634Z,95.20
2019-06-10T04:44:13.232Z,95.70
2019-06-10T04:46:42.761Z,95.70
2019-06-10T04:49:13.206Z,95.70
2019-06-10T04:51:43.553Z,96.10
2019-06-10T04:54:13.374Z,96.80
2019-06-10T04:56:42.851Z,96.50
2019-06-10T04:59:12.672Z,96.10
2019-06-10T05:01:42.666Z,96.30
2019-06-10T05:04:12.562Z,96.10
2019-06-10T05:06:42.390Z,96.20
2019-06-10T05:09:12.467Z,95.90
2019-06-10T05:11:43.068Z,95.40
2019-06-10T05:14:13.303Z,95.30
2019-06-10T05:16:43.070Z,94.70
2019-06-10T05:19:12.876Z,94.40
2019-06-10T05:21:42.386Z,94.30
2019-06-10T05:24:12.509Z,95.00
2019-06-10T05:26:42.514Z,94.50
2019-06-10T05:29:12.116Z,95.20
2019-06-10T05:31:43.429Z,94.70
2019-06-10T05:34:13.121Z,95.10
2019-06-10T05:36:43.700Z,95.00
2019-06-10T05:39:12.197Z,95.30
2019-06-10T05:41:43.090Z,96.00
2019-06-10T05:44:13.175Z,95.80
2019-06-10T05:46:43.608Z,95.50
2019-06-10T05:49:12.522Z,95.70
2019-06-10T05:51:42.415Z,95.70
2019-06-10T05:54:12.750Z,96.60
2019-06-10T05:56:43.296Z,96.30
2019-06-10T05:59:12.336Z,96.00
2019-06-10T06:01:43.245Z,96.10
2019-06-10T06:04:12.695Z,96.40
2019-06-10T06:06:44.387Z,96.30
2019-06-10T06:09:12.942Z,96.40
2019-06-10T06:11:43.112Z,96.10
2019-06-10T06:14:13.289Z,96.30
2019-06-10T06:16:43.223Z,96.40
2019-06-10T06:19:12.671Z,97.30
2019-06-10T06:21:46.596Z,96.90
2019-06-10T06:24:12.904Z,96.70
2019-06-10T06:26:43.182Z,97.00
2019-06-10T06:29:13.046Z,97.10
2019-06-10T06:31:42.951Z,96.80
2019-06-10T06:34:13.909Z,97.00
2019-06-10T06:36:42.491Z,97.30
2019-06-10T06:39:12.855Z,97.30
2019-06-10T06:41:42.706Z,97.70
2019-06-10T06:44:12.957Z,97.70
2019-06-10T06:46:42.890Z,98.20
2019-06-10T06:49:12.835Z,97.70
2019-06-10T06:51:54.064Z,98.00
2019-06-10T06:54:12.534Z,97.70
2019-06-10T06:56:43.675Z,97.40
2019-06-10T06:59:13.157Z,97.40
2019-06-10T07:01:44.287Z,97.70
2019-06-10T07:04:13.690Z,97.30
2019-06-10T07:06:43.413Z,97.70
2019-06-10T07:09:13.471Z,97.40
2019-06-10T07:11:45.102Z,98.10
2019-06-10T07:14:14.110Z,98.10
2019-06-10T07:16:46.016Z,98.40
2019-06-10T07:19:13.264Z,98.00
2019-06-10T07:22:02.731Z,98.30
2019-06-10T07:24:12.647Z,98.20
2019-06-10T07:26:45.316Z,98.30
2019-06-10T07:29:13.232Z,98.40
2019-06-10T07:31:45.900Z,98.10
2019-06-10T07:34:12.981Z,98.20
2019-06-10T07:36:44.060Z,98.40
2019-06-10T07:39:13.405Z,97.90
2019-06-10T07:41:47.052Z,97.80
2019-06-10T07:44:12.654Z,97.60
2019-06-10T07:46:43.807Z,96.40
2019-06-10T07:49:13.480Z,96.40
2019-06-10T07:51:45.626Z,95.70
2019-06-10T07:54:12.426Z,95.20
2019-06-10T07:56:47.302Z,95.30
2019-06-10T07:59:12.910Z,94.00
2019-06-10T08:01:48.408Z,94.40
2019-06-10T08:04:12.193Z,94.70
2019-06-10T08:06:44.138Z,93.40
2019-06-10T08:09:12.651Z,92.40
2019-06-10T08:11:44.853Z,92.40
2019-06-10T08:14:12.994Z,92.80
2019-06-10T08:16:44.799Z,92.90
2019-06-10T08:19:34.908Z,91.70
2019-06-10T08:21:47.027Z,92.10
2019-06-10T08:24:12.779Z,92.10
2019-06-10T08:26:43.972Z,92.00
2019-06-10T08:29:12.681Z,91.80
2019-06-10T08:31:44.487Z,91.00
2019-06-10T08:34:13.419Z,91.10
2019-06-10T08:36:46.316Z,90.00
2019-06-10T08:39:15.746Z,88.50
2019-06-10T08:41:45.573Z,88.90
2019-06-10T08:44:12.805Z,88.10
2019-06-10T08:46:43.646Z,88.20
2019-06-10T08:49:12.695Z,88.50
2019-06-10T08:51:45.453Z,87.60
2019-06-10T08:54:12.784Z,86.30
2019-06-10T08:56:46.786Z,84.90
2019-06-10T08:59:12.405Z,84.10
2019-06-10T09:01:46.051Z,82.30
2019-06-10T09:04:13.345Z,81.60
2019-06-10T09:06:47.169Z,82.60
2019-06-10T09:09:12.893Z,82.50
2019-06-10T09:11:46.906Z,80.40
2019-06-10T09:14:12.639Z,80.10
2019-06-10T09:16:44.416Z,78.00
2019-06-10T09:19:13.110Z,78.90
2019-06-10T09:21:48.148Z,79.80
2019-06-10T09:24:12.904Z,78.30
2019-06-10T09:26:45.045Z,78.10
2019-06-10T09:29:13.432Z,77.10
2019-06-10T09:31:46.726Z,77.60
2019-06-10T09:34:12.786Z,76.10
2019-06-10T09:36:46.232Z,76.10
2019-06-10T09:39:12.543Z,75.10
2019-06-10T09:41:50.298Z,75.20
2019-06-10T09:44:13.060Z,72.30
2019-06-10T09:46:47.011Z,75.60
2019-06-10T09:49:14.026Z,72.40
2019-06-10T09:51:45.826Z,72.80
2019-06-10T09:54:12.877Z,71.00
2019-06-10T09:56:44.078Z,71.60
2019-06-10T09:59:14.525Z,71.30
2019-06-10T10:01:47.237Z,70.20
2019-06-10T10:04:13.442Z,68.70
2019-06-10T10:06:47.634Z,70.50
2019-06-10T10:09:13.582Z,66.70
2019-06-10T10:11:44.465Z,67.10
2019-06-10T10:14:16.047Z,66.90
2019-06-10T10:16:47.778Z,70.50
2019-06-10T10:19:13.224Z,67.40
2019-06-10T10:21:46.876Z,66.20
2019-06-10T10:24:14.899Z,66.90
2019-06-10T10:26:45.242Z,65.70
2019-06-10T10:29:13.144Z,67.10
2019-06-10T10:31:45.070Z,67.00
2019-06-10T10:34:13.528Z,66.90
2019-06-10T10:36:44.946Z,67.30
2019-06-10T10:39:14.009Z,66.00
2019-06-10T10:41:45.234Z,65.10
2019-06-10T10:44:14.522Z,65.50
2019-06-10T10:46:44.221Z,66.80
2019-06-10T10:49:14.260Z,67.50
2019-06-10T10:51:43.129Z,64.40
2019-06-10T10:54:22.311Z,64.30
2019-06-10T10:56:44.669Z,64.90
2019-06-10T10:59:13.308Z,64.00
2019-06-10T11:01:44.011Z,64.00
2019-06-10T11:04:13.280Z,61.70
2019-06-10T11:06:44.280Z,62.50
2019-06-10T11:09:13.117Z,62.20
2019-06-10T11:11:43.983Z,60.10
2019-06-10T11:14:14.317Z,60.80
2019-06-10T11:16:43.296Z,60.80
2019-06-10T11:19:12.988Z,61.30
2019-06-10T11:21:42.610Z,62.00
2019-06-10T11:24:14.179Z,60.80
2019-06-10T11:26:43.187Z,61.10
2019-06-10T11:29:12.151Z,59.50
2019-06-10T11:31:42.606Z,60.90
2019-06-10T11:34:11.584Z,58.70
2019-06-10T11:36:42.371Z,59.30
2019-06-10T11:39:13.180Z,58.80
2019-06-10T11:41:42.885Z,56.80
2019-06-10T11:44:10.993Z,57.60
2019-06-10T11:46:43.060Z,58.00
2019-06-10T11:49:12.620Z,58.10
2019-06-10T11:51:41.337Z,60.00
2019-06-10T11:54:12.637Z,58.90
2019-06-10T11:56:42.039Z,57.80
2019-06-10T11:59:13.439Z,59.70
2019-06-10T12:01:42.623Z,59.70
2019-06-10T12:04:12.931Z,60.20
2019-06-10T12:06:42.551Z,61.50
2019-06-10T12:09:13.734Z,58.50
2019-06-10T12:11:43.748Z,58.50
2019-06-10T12:14:12.845Z,58.40
2019-06-10T12:19:12.739Z,57.30
2019-06-10T12:21:43.470Z,58.40
2019-06-10T12:24:12.638Z,57.20
2019-06-10T12:26:43.454Z,57.60
2019-06-10T12:29:12.507Z,57.40
2019-06-10T12:31:42.864Z,56.50
2019-06-10T12:34:12.543Z,55.50
2019-06-10T12:36:41.425Z,55.30
2019-06-10T12:39:14.870Z,54.50
2019-06-10T12:41:42.966Z,55.50
2019-06-10T12:44:12.431Z,56.20
2019-06-10T12:46:43.093Z,57.10
2019-06-10T12:49:13.119Z,57.00
2019-06-10T12:51:42.534Z,56.10
2019-06-10T12:54:13.152Z,58.00
2019-06-10T12:56:42.354Z,57.00
2019-06-10T12:59:13.563Z,57.20
2019-06-10T13:01:44.709Z,55.20
2019-06-10T13:04:13.721Z,56.50
2019-06-10T13:06:45.962Z,56.20
2019-06-10T13:09:14.585Z,56.50
2019-06-10T13:11:43.447Z,57.50
2019-06-10T13:14:13.030Z,58.20
2019-06-10T13:16:43.338Z,57.40
2019-06-10T13:19:13.200Z,56.60
2019-06-10T13:21:42.664Z,56.10
2019-06-10T13:24:13.248Z,54.10
2019-06-10T13:26:43.209Z,54.10
2019-06-10T13:29:16.805Z,53.40
2019-06-10T13:31:43.569Z,54.80
2019-06-10T13:34:14.737Z,55.40
2019-06-10T13:36:43.121Z,55.10
2019-06-10T13:39:13.502Z,56.60
2019-06-10T13:41:43.773Z,54.20
2019-06-10T13:44:16.474Z,53.00
2019-06-10T13:46:53.136Z,53.40
2019-06-10T13:49:25.212Z,54.70
2019-06-10T13:51:52.971Z,51.70
2019-06-10T13:54:22.567Z,51.80
2019-06-10T13:56:52.345Z,53.30
2019-06-10T13:59:22.915Z,53.50
2019-06-10T14:01:53.146Z,53.60
2019-06-10T14:04:25.412Z,51.60
2019-06-10T14:06:56.788Z,51.40
2019-06-10T14:09:22.942Z,52.00
2019-06-10T14:11:52.630Z,51.50
2019-06-10T14:14:22.971Z,52.20
2019-06-10T14:16:53.833Z,52.30
2019-06-10T14:19:23.197Z,53.90
2019-06-10T14:21:52.001Z,54.10
2019-06-10T14:24:22.773Z,52.70
2019-06-10T14:26:52.977Z,54.70
2019-06-10T14:29:20.981Z,54.40
2019-06-10T14:31:49.706Z,52.90
2019-06-10T14:34:18.810Z,53.70
2019-06-10T14:36:47.758Z,53.20
2019-06-10T14:39:16.417Z,53.10
2019-06-10T14:41:44.905Z,54.40
2019-06-10T14:44:16.103Z,54.50
2019-06-10T14:46:43.744Z,53.80
2019-06-10T14:49:14.981Z,53.50
2019-06-10T14:51:43.093Z,51.40
2019-06-10T14:54:14.649Z,52.00
2019-06-10T14:56:53.019Z,52.70
2019-06-10T14:59:14.955Z,52.30
2019-06-10T15:01:42.753Z,52.00
2019-06-10T15:04:14.376Z,53.30
2019-06-10T15:06:43.154Z,53.50
2019-06-10T15:09:11.901Z,53.60
2019-06-10T15:11:42.657Z,52.00
2019-06-10T15:14:14.235Z,54.80
2019-06-10T15:16:43.535Z,55.60
2019-06-10T15:19:18.398Z,53.70
2019-06-10T15:21:42.850Z,53.70
2019-06-10T15:24:12.010Z,54.70
2019-06-10T15:26:42.286Z,54.50
2019-06-10T15:29:11.828Z,53.60
2019-06-10T15:31:42.821Z,55.10
2019-06-10T15:34:15.007Z,54.00
2019-06-10T15:36:43.270Z,54.40
2019-06-10T15:39:16.154Z,55.10
2019-06-10T15:41:42.889Z,55.50
2019-06-10T15:44:14.551Z,55.10
2019-06-10T15:46:43.082Z,56.40
2019-06-10T15:49:15.740Z,56.10
2019-06-10T15:51:43.549Z,55.60
2019-06-10T15:54:14.029Z,55.50
2019-06-10T15:56:51.885Z,55.00
2019-06-10T15:59:14.907Z,55.90
2019-06-10T16:01:43.109Z,55.90
2019-06-10T16:04:14.058Z,56.80
2019-06-10T16:06:42.491Z,55.20
2019-06-10T16:09:12.553Z,56.90
2019-06-10T16:11:43.631Z,55.70
2019-06-10T16:14:12.555Z,56.70
2019-06-10T16:16:43.248Z,55.20
2019-06-10T16:19:13.350Z,56.30
2019-06-10T16:21:42.875Z,55.20
2019-06-10T16:24:13.661Z,54.20
2019-06-10T16:26:41.919Z,54.40
2019-06-10T16:29:12.325Z,55.40
2019-06-10T16:31:42.611Z,55.10
2019-06-10T16:34:12.764Z,55.70
2019-06-10T16:36:42.741Z,56.50
2019-06-10T16:39:12.498Z,55.50
2019-06-10T16:41:43.025Z,57.30
2019-06-10T16:44:13.655Z,55.60
2019-06-10T16:46:43.095Z,57.70
2019-06-10T16:49:12.807Z,58.10
2019-06-10T16:51:42.894Z,58.70
2019-06-10T16:54:13.057Z,57.60
2019-06-10T16:56:43.517Z,57.00
2019-06-10T16:59:12.335Z,59.40
2019-06-10T17:01:42.823Z,59.30
2019-06-10T17:04:12.511Z,58.20
2019-06-10T17:06:42.180Z,59.40
2019-06-10T17:21:37.028Z,60.40
2019-06-10T17:24:12.787Z,62.00
2019-06-10T17:30:13.193Z,61.90
2019-06-10T17:32:42.649Z,62.20
2019-06-10T17:35:12.645Z,63.10
2019-06-10T17:37:43.180Z,63.50
2019-06-10T17:40:13.222Z,64.10
2019-06-10T17:42:42.815Z,64.70
2019-06-10T17:45:12.812Z,64.60
2019-06-10T17:47:42.669Z,65.40
2019-06-10T17:50:15.598Z,64.80
2019-06-10T17:52:44.274Z,66.30
2019-06-10T17:55:13.157Z,66.60
2019-06-10T17:57:42.996Z,67.60
2019-06-10T18:00:24.320Z,72.50
2019-06-10T18:03:33.417Z,69.80
2019-06-10T18:06:02.808Z,69.30
2019-06-10T18:08:34.577Z,68.90
2019-06-10T18:11:03.270Z,68.60
2019-06-10T19:36:41.858Z,85.10
2019-06-10T19:39:12.970Z,85.90
2019-06-10T19:41:45.739Z,86.30
2019-06-10T19:44:13.066Z,87.60
2019-06-10T19:46:43.035Z,87.80
2019-06-10T19:49:13.370Z,88.30
2019-06-10T19:51:44.878Z,89.10
2019-06-10T19:54:12.795Z,89.80
2019-06-10T19:56:41.792Z,90.20
2019-06-10T19:59:12.568Z,90.90
2019-06-10T20:01:45.790Z,90.90
2019-06-10T20:04:13.718Z,91.20
2019-06-10T20:06:44.385Z,91.30
2019-06-10T20:09:13.164Z,91.80
2019-06-10T20:11:45.620Z,91.90
2019-06-10T20:14:12.828Z,92.10
2019-06-10T20:16:42.977Z,92.30
2019-06-10T20:19:12.971Z,92.60
2019-06-10T20:21:43.562Z,92.90
2019-06-10T20:24:12.471Z,93.30
2019-06-10T20:26:43.268Z,93.20
2019-06-10T20:29:12.621Z,93.60
2019-06-10T20:31:45.184Z,93.60
2019-06-10T20:34:13.264Z,94.00
2019-06-10T20:36:43.492Z,94.20
2019-06-10T20:39:12.256Z,94.20
2019-06-10T20:41:44.272Z,94.50
2019-06-10T20:44:13.102Z,94.90
2019-06-10T20:46:43.516Z,95.40
2019-06-10T20:49:13.512Z,95.90
2019-06-10T20:51:58.073Z,96.10
2019-06-10T20:54:12.784Z,96.50
2019-06-10T20:56:45.504Z,96.80
2019-06-10T20:59:13.135Z,97.00
2019-06-10T21:01:44.496Z,97.30
2019-06-10T21:04:13.156Z,97.50
2019-06-10T21:06:43.618Z,97.80
2019-06-10T21:09:13.418Z,98.20
2019-06-10T21:11:45.132Z,99.30
2019-06-10T21:14:12.411Z,99.90
2019-06-10T21:16:42.046Z,99.90
2019-06-10T21:19:10.805Z,99.90
2019-06-10T21:21:40.405Z,99.90
2019-06-10T21:24:09.567Z,99.90
2019-06-10T21:26:38.159Z,99.90
2019-06-10T21:29:06.769Z,99.90
2019-06-10T21:31:35.322Z,99.90
2019-06-10T21:34:03.966Z,99.90
2019-06-10T21:36:32.439Z,99.90
2019-06-10T21:39:02.746Z,99.90
2019-06-10T21:41:31.285Z,99.90
2019-06-10T21:43:59.891Z,99.90
2019-06-10T21:46:29.955Z,99.90
2019-06-10T21:48:58.551Z,99.90
2019-06-10T21:51:27.029Z,99.90
2019-06-10T21:53:55.645Z,99.90
2019-06-10T21:56:24.230Z,99.90
2019-06-10T21:58:55.037Z,99.90
2019-06-10T22:01:23.113Z,99.90
2019-06-10T22:03:58.721Z,99.90
2019-06-10T22:06:22.833Z,99.90
2019-06-10T22:08:54.485Z,99.90
2019-06-10T22:11:23.572Z,99.90
2019-06-10T22:13:53.349Z,99.90
2019-06-10T22:16:22.743Z,99.90
2019-06-10T22:18:52.623Z,99.90
2019-06-10T22:21:22.657Z,99.90
2019-06-10T22:23:53.554Z,99.90
2019-06-10T22:26:22.502Z,99.90
2019-06-10T22:28:54.032Z,99.90
2019-06-10T22:31:23.541Z,99.90
2019-06-10T22:33:54.270Z,99.90
2019-06-10T22:36:23.161Z,99.90
2019-06-10T22:38:55.792Z,99.90
2019-06-10T22:41:22.569Z,99.90
2019-06-10T22:43:52.228Z,99.90
2019-06-10T22:46:23.190Z,99.90
2019-06-10T22:48:53.461Z,99.90
2019-06-10T22:51:22.679Z,99.90
2019-06-10T22:53:54.541Z,99.90
2019-06-10T22:56:21.696Z,99.90
2019-06-10T22:58:52.717Z,99.90
2019-06-10T23:01:31.655Z,99.90
2019-06-10T23:03:52.013Z,99.90
2019-06-10T23:06:23.039Z,99.90
2019-06-10T23:08:53.378Z,99.90
2019-06-10T23:11:23.851Z,99.90
2019-06-10T23:13:53.850Z,99.90
2019-06-10T23:16:22.257Z,99.90
2019-06-10T23:18:53.178Z,99.90
2019-06-10T23:21:21.182Z,99.90
2019-06-10T23:23:52.197Z,99.90
2019-06-10T23:26:22.421Z,99.90
2019-06-10T23:28:52.780Z,99.90
2019-06-10T23:31:22.858Z,99.90
2019-06-10T23:33:53.469Z,99.90
2019-06-10T23:36:23.353Z,99.90
2019-06-10T23:38:51.127Z,99.90
2019-06-10T23:41:22.156Z,99.90
2019-06-10T23:43:50.934Z,99.90
2019-06-10T23:46:19.577Z,99.90
2019-06-10T23:48:48.198Z,99.90
2019-06-10T23:51:16.826Z,99.90
2019-06-10T23:53:45.383Z,99.90
2019-06-10T23:56:14.007Z,99.90
2019-06-10T23:58:43.317Z,99.90
